ABB ROE 2006-2018 | ABB

Current and historical return on equity (ROE) values for ABB (ABB) over the last 10 years. Return on equity can be defined as the amount of net income returned as a percentage of shareholders equity. Return on equity measures a corporation's profitability by revealing how much profit a company generates with the money shareholders have invested. ABB ROE for the three months ending September 30, 2018 was 19.99%.
ABB ROE - Return on Equity Historical Data
Date TTM Net Income Shareholder's Equity Return on Equity
2018-09-30 $2.25B $14.65B 15.48%
2018-06-30 $2.22B $14.18B 15.23%
2018-03-31 $2.06B $13.94B 14.23%
2017-12-31 $2.21B $15.35B 15.02%
2017-09-30 $2.25B $14.75B 15.63%
2017-06-30 $2.24B $13.88B 15.84%
2017-03-31 $2.12B $14.94B 15.19%
2016-12-31 $1.90B $13.90B 13.48%
2016-09-30 $1.68B $13.91B 11.69%
2016-06-30 $1.69B $13.16B 11.49%
2016-03-31 $1.87B $15.37B 12.34%
2015-12-31 $1.93B $14.99B 12.57%
2015-09-30 $2.41B $15.23B 15.22%
2015-06-30 $2.57B $15.01B 15.61%
2015-03-31 $2.61B $16.28B 15.17%
2014-12-31 $2.59B $16.82B 14.34%
2014-09-30 $2.44B $17.65B 13.05%
2014-06-30 $2.54B $18.17B 13.52%
2014-03-31 $2.67B $19.71B 14.47%
2013-12-31 $2.79B $19.21B 15.53%
2013-09-30 $2.87B $18.08B 16.37%
2013-06-30 $2.79B $16.75B 16.16%
2013-03-31 $2.68B $17.74B 15.73%
2012-12-31 $2.70B $17.45B 15.90%
2012-09-30 $2.93B $17.14B 17.52%
2012-06-30 $2.96B $15.91B 17.91%
2012-03-31 $3.20B $17.52B 19.17%
2011-12-31 $3.17B $16.34B 19.26%
2011-09-30 $3.04B $16.35B 18.72%
2011-06-30 $3.02B $16.52B 19.16%
2011-03-31 $2.75B $16.59B 17.98%
2010-12-31 $2.56B $15.46B 17.27%
2010-09-30 $2.40B $14.54B 16.46%
2010-06-30 $2.66B $14.63B 18.44%
2010-03-31 $2.71B $14.70B 19.25%
2009-12-31 $2.90B $14.47B 21.63%
2009-09-30 $2.57B $13.93B 20.21%
2009-06-30 $2.47B $13.28B 20.24%
2009-03-31 $2.77B $11.98B 22.97%
2008-12-31 $3.12B $11.77B 25.87%
2008-09-30 $4.51B $11.72B 38.08%
2008-06-30 $4.32B $12.72B 38.85%
2008-03-31 $4.08B $11.99B 41.36%
2007-12-31 $3.61B $10.96B 41.66%
2007-09-30 $2.43B $8.84B 32.62%
2007-06-30 $2.09B $7.64B 31.32%
2007-03-31 $1.72B $7.23B 28.28%
2006-12-31 $1.39B $6.04B 26.51%
2006-09-30 $1.19B $5.72B 25.85%
2006-06-30 $0.98B $5.38B 24.53%
2006-03-31 $0.74B $3.83B 21.67%
2005-12-31 $0.74B $3.48B 22.93%
Sector Industry Market Cap Revenue
Industrial Products Electrical Machinery $43.093B $34.312B
ABB Ltd, headquartered in Zurich, Switzerland, is engaged in providing power and automation technologies for its utility and industrial customers. The Company provides a range of products, systems, solutions and services that are designed to improve power grid reliability, increase industrial productivity and enhance energy efficiency. ABB is focused on power transmission, distribution and power-plant automation and serves electric, gas and water utilities, as well as industrial and commercial customers. Its Power Products division manufactures three categories of products: High-voltage Products, Medium-voltage Products and Transformers. The key technologies include high- and medium-voltage switchgear, circuit breakers for various current and voltage levels, power and distribution transformers, as well as sensors and products to automate and control electrical and other utility networks. ABB Ltd is structured into four regions: Europe, the Americas, Asia and the Middle East and Africa (MEA).
Stock Name Country Market Cap PE Ratio
Emerson Electric (EMR) United States $43.044B 22.02
Eaton (ETN) Ireland $31.825B 14.09
A O Smith (AOS) United States $7.807B 18.53
Enersys (ENS) United States $3.702B 18.18
Regal Beloit (RBC) United States $3.310B 13.34
Rexnord (RXN) United States $3.039B 17.49
II-VI (IIVI) United States $2.417B 22.49
Franklin Electric (FELE) United States $2.124B 21.03
ESCO Technologies (ESE) United States $1.692B 28.03
SPX FLOW (FLOW) United States $1.600B 17.09
AZZ (AZZ) United States $1.237B 40.58
Plug Power (PLUG) United States $0.402B 0.00
Powell Industries (POWL) United States $0.373B 0.00
Energous (WATT) United States $0.237B 0.00
Capstone Turbine (CPST) United States $0.057B 0.00
CUI Global (CUI) United States $0.049B 0.00
Pioneer Power Solutions (PPSI) United States $0.048B 9.48
Ideal Power (IPWR) United States $0.008B 0.00
American Electric Technologies (AETI) United States $0.006B 0.00